Ryuoh Maru No.2 — JM5900 — position and weather

sailwx.info

Track history (hours):
 
Tides and Currents Weather Stations Pressure Air Temp Water Temp Dewpoint Dewpoint Depression Visibility Wind Speed Wind Dir Waves Ship Positions

Ryuoh Maru No.2

Last reported at 2015-Feb-06 09:27 UTC. Time now 2015-Feb-26 23:22 UTC.
Position N 34°55' E 139°45'.
Warning: this ship's position is 20 days out of date.

Length 80 m.

Type: Tanker. MMSI: 431401218.

Date/timePositionNaut miles runAvg speedWind from/ knotsBaromVisibWave heightAir tempDewpointWater temp
2015-Feb-06 09:27N 34°55' E 139°45'8 9.4
2015-Feb-06 08:33N 35°03' E 139°44'1010.3
2015-Feb-06 07:33N 35°13' E 139°46'9 9.3
2015-Feb-06 06:33N 35°22' E 139°42'6 5.7
2015-Feb-06 05:32N 35°22' E 139°50'1 1.0
2015-Feb-06 04:34N 35°22' E 139°51'0 0.0
2015-Feb-06 03:34N 35°22' E 139°51'0 0.0
2015-Feb-06 02:34N 35°22' E 139°51'0 0.0
2015-Feb-06 01:19N 35°22' E 139°51'0 0.0
2015-Feb-06 00:31N 35°22' E 139°51'5 5.3
2015-Feb-05 23:33N 35°27' E 139°48'6 0.2
2015-Feb-04 23:24N 35°31' E 139°45'2 2.5
2015-Feb-04 22:33N 35°30' E 139°44'5 5.1
2015-Feb-04 21:31N 35°24' E 139°45'0 0.0
2015-Feb-04 20:31N 35°24' E 139°45'0 0.0
2015-Feb-04 19:25N 35°25' E 139°45'0 0.1
2015-Feb-04 18:31N 35°25' E 139°45'0 0.0
2015-Feb-04 17:31N 35°25' E 139°45'0 0.0
2015-Feb-04 16:31N 35°25' E 139°45'0 0.0
2015-Feb-04 15:31N 35°25' E 139°45'0 0.0
2015-Feb-04 14:31N 35°25' E 139°45'0 0.0
2015-Feb-04 13:31N 35°25' E 139°45'0 0.0
2015-Feb-04 12:31N 35°25' E 139°45'0 0.0
2015-Feb-04 11:31N 35°25' E 139°45'0 0.0
2015-Feb-04 10:31N 35°25' E 139°45'0 0.0
2015-Feb-04 09:31N 35°25' E 139°45'0 0.0
2015-Feb-04 08:31N 35°25' E 139°45'0 0.1
2015-Feb-04 07:31N 35°25' E 139°45'0 0.0
2015-Feb-04 06:31N 35°25' E 139°45'0 0.0
2015-Feb-04 05:31N 35°25' E 139°45'0 0.0
2015-Feb-04 04:31N 35°25' E 139°45'0 0.1
2015-Feb-04 03:28N 35°25' E 139°45'7 7.7
2015-Feb-04 02:34N 35°18' E 139°45'9 9.4
2015-Feb-04 01:33N 35°08' E 139°46'10 9.8
2015-Feb-04 00:33N 34°59' E 139°43'  
Track history (hours):
 
Tides and Currents Weather Stations Pressure Air Temp Water Temp Dewpoint Dewpoint Depression Visibility Wind Speed Wind Dir Waves Ship Positions

Ryuoh Maru No.2

Last reported at 2015-Feb-06 09:27 UTC. Time now 2015-Feb-26 23:22 UTC.
Position N 34°55' E 139°45'.
Warning: this ship's position is 20 days out of date.

Length 80 m.

Type: Tanker. MMSI: 431401218.

Date/timePositionNaut miles runAvg speedWind from/ knotsBaromVisibWave heightAir tempDewpointWater temp
2015-Feb-06 09:27N 34°55' E 139°45'8 9.4
2015-Feb-06 08:33N 35°03' E 139°44'1010.3
2015-Feb-06 07:33N 35°13' E 139°46'9 9.3
2015-Feb-06 06:33N 35°22' E 139°42'6 5.7
2015-Feb-06 05:32N 35°22' E 139°50'1 1.0
2015-Feb-06 04:34N 35°22' E 139°51'0 0.0
2015-Feb-06 03:34N 35°22' E 139°51'0 0.0
2015-Feb-06 02:34N 35°22' E 139°51'0 0.0
2015-Feb-06 01:19N 35°22' E 139°51'0 0.0
2015-Feb-06 00:31N 35°22' E 139°51'5 5.3
2015-Feb-05 23:33N 35°27' E 139°48'6 0.2
2015-Feb-04 23:24N 35°31' E 139°45'2 2.5
2015-Feb-04 22:33N 35°30' E 139°44'5 5.1
2015-Feb-04 21:31N 35°24' E 139°45'0 0.0
2015-Feb-04 20:31N 35°24' E 139°45'0 0.0
2015-Feb-04 19:25N 35°25' E 139°45'0 0.1
2015-Feb-04 18:31N 35°25' E 139°45'0 0.0
2015-Feb-04 17:31N 35°25' E 139°45'0 0.0
2015-Feb-04 16:31N 35°25' E 139°45'0 0.0
2015-Feb-04 15:31N 35°25' E 139°45'0 0.0
2015-Feb-04 14:31N 35°25' E 139°45'0 0.0
2015-Feb-04 13:31N 35°25' E 139°45'0 0.0
2015-Feb-04 12:31N 35°25' E 139°45'0 0.0
2015-Feb-04 11:31N 35°25' E 139°45'0 0.0
2015-Feb-04 10:31N 35°25' E 139°45'0 0.0
2015-Feb-04 09:31N 35°25' E 139°45'0 0.0
2015-Feb-04 08:31N 35°25' E 139°45'0 0.1
2015-Feb-04 07:31N 35°25' E 139°45'0 0.0
2015-Feb-04 06:31N 35°25' E 139°45'0 0.0
2015-Feb-04 05:31N 35°25' E 139°45'0 0.0
2015-Feb-04 04:31N 35°25' E 139°45'0 0.1
2015-Feb-04 03:28N 35°25' E 139°45'7 7.7
2015-Feb-04 02:34N 35°18' E 139°45'9 9.4
2015-Feb-04 01:33N 35°08' E 139°46'10 9.8
2015-Feb-04 00:33N 34°59' E 139°43'  

Dump ship's entire track history